createdAt,value
2024-03-06T00:00:21.024Z,102114.81
2024-03-06T00:02:48.389Z,102114.66
2024-03-06T00:05:15.772Z,102122.88
2024-03-06T00:07:43.016Z,102123.50
2024-03-06T00:10:10.502Z,102130.97
2024-03-06T00:12:37.592Z,102124.94
2024-03-06T00:15:05.187Z,102124.81
2024-03-06T00:17:32.563Z,102134.56
2024-03-06T00:19:59.788Z,102126.63
2024-03-06T00:22:26.961Z,102127.22
2024-03-06T00:24:54.124Z,102125.97
2024-03-06T00:27:21.457Z,102137.81
2024-03-06T00:29:48.831Z,102132.28
2024-03-06T00:32:16.266Z,102134.75
2024-03-06T00:34:43.702Z,102135.31
2024-03-06T00:37:13.983Z,102130.66
2024-03-06T00:39:44.445Z,102132.03
2024-03-06T00:42:14.957Z,102132.31
2024-03-06T00:44:42.566Z,102141.75
2024-03-06T00:47:09.985Z,102145.88
2024-03-06T00:49:42.934Z,102149.69
2024-03-06T00:52:10.689Z,102150.59
2024-03-06T00:54:37.757Z,102145.47
2024-03-06T00:57:05.015Z,102153.22
2024-03-06T00:59:32.050Z,102157.66
2024-03-06T01:01:59.258Z,102165.34
2024-03-06T01:04:26.411Z,102158.78
2024-03-06T01:06:53.587Z,102166.84
2024-03-06T01:09:20.718Z,102167.28
2024-03-06T01:11:49.210Z,102169.41
2024-03-06T01:14:17.820Z,102177.97
2024-03-06T01:16:45.124Z,102179.31
2024-03-06T01:19:12.250Z,102181.28
2024-03-06T01:21:39.800Z,102184.34
2024-03-06T01:24:06.934Z,102175.41
2024-03-06T01:26:34.185Z,102178.22
2024-03-06T01:29:01.672Z,102183.50
2024-03-06T01:31:29.007Z,102170.94
2024-03-06T01:33:56.105Z,102181.94
2024-03-06T01:36:23.258Z,102188.22
2024-03-06T01:38:50.403Z,102188.59
2024-03-06T01:41:17.553Z,102182.72
2024-03-06T01:43:45.448Z,102177.13
2024-03-06T01:46:12.599Z,102175.19
2024-03-06T01:48:40.601Z,102182.59
2024-03-06T01:51:07.808Z,102192.81
2024-03-06T01:53:36.328Z,102188.56
2024-03-06T01:56:05.364Z,102203.94
2024-03-06T01:58:35.378Z,102200.50
2024-03-06T02:01:03.684Z,102203.78
2024-03-06T02:03:32.942Z,102200.34
2024-03-06T02:06:03.631Z,102196.63
2024-03-06T02:08:30.816Z,102191.53
2024-03-06T02:10:58.102Z,102196.81
2024-03-06T02:13:25.379Z,102194.63
2024-03-06T02:15:52.530Z,102191.38
2024-03-06T02:18:19.614Z,102193.75
2024-03-06T02:20:48.340Z,102199.28
2024-03-06T02:23:16.026Z,102195.84
2024-03-06T02:25:43.290Z,102193.00
2024-03-06T02:28:10.467Z,102194.00
2024-03-06T02:30:38.527Z,102189.31
2024-03-06T02:33:08.045Z,102192.84
2024-03-06T02:35:36.412Z,102193.06
2024-03-06T02:38:08.872Z,102189.59
2024-03-06T02:40:36.168Z,102194.13
2024-03-06T02:43:03.791Z,102187.03
2024-03-06T02:45:30.824Z,102179.00
2024-03-06T02:47:57.947Z,102169.06
2024-03-06T02:50:25.214Z,102167.69
2024-03-06T02:52:54.636Z,102173.19
2024-03-06T02:55:23.832Z,102173.22
2024-03-06T02:57:50.995Z,102177.69
2024-03-06T03:00:18.253Z,102166.50
2024-03-06T03:02:45.304Z,102168.97
2024-03-06T03:05:12.600Z,102172.31
2024-03-06T03:07:39.941Z,102183.06
2024-03-06T03:10:07.754Z,102174.66
2024-03-06T03:12:35.218Z,102171.16
2024-03-06T03:15:02.652Z,102181.88
2024-03-06T03:17:29.789Z,102186.91
2024-03-06T03:19:57.095Z,102178.31
2024-03-06T03:22:24.451Z,102184.56
2024-03-06T03:24:51.558Z,102178.38
2024-03-06T03:27:19.247Z,102177.28
2024-03-06T03:29:46.374Z,102183.81
2024-03-06T03:32:13.555Z,102190.97
2024-03-06T03:34:41.004Z,102196.00
2024-03-06T03:37:08.142Z,102192.69
2024-03-06T03:39:35.209Z,102186.09
2024-03-06T03:42:02.512Z,102197.97
2024-03-06T03:44:29.595Z,102186.97
2024-03-06T03:46:56.702Z,102201.88
2024-03-06T03:49:23.800Z,102201.09
2024-03-06T03:51:50.961Z,102212.81
2024-03-06T03:54:18.040Z,102213.56
2024-03-06T03:56:45.225Z,102224.19
2024-03-06T03:59:12.392Z,102225.56
2024-03-06T04:01:39.556Z,102225.53
2024-03-06T04:04:08.334Z,102237.88
2024-03-06T04:06:35.588Z,102236.06
2024-03-06T04:09:03.100Z,102241.16
2024-03-06T04:11:31.083Z,102235.28
2024-03-06T04:13:58.254Z,102234.63
2024-03-06T04:16:25.395Z,102236.25
2024-03-06T04:18:53.047Z,102245.84
2024-03-06T04:21:20.200Z,102250.78
2024-03-06T04:23:47.462Z,102254.31
2024-03-06T04:26:14.864Z,102262.25
2024-03-06T04:28:42.030Z,102262.78
2024-03-06T04:31:09.290Z,102263.72
2024-03-06T04:33:36.662Z,102264.63
2024-03-06T04:36:07.012Z,102266.56
2024-03-06T04:38:34.199Z,102255.59
2024-03-06T04:41:01.319Z,102267.00
2024-03-06T04:43:28.667Z,102253.06
2024-03-06T04:45:55.794Z,102257.53
2024-03-06T04:48:22.991Z,102262.81
2024-03-06T04:50:50.495Z,102264.44
2024-03-06T04:53:17.738Z,102257.03
2024-03-06T04:55:45.017Z,102272.59
2024-03-06T04:58:12.198Z,102266.66
2024-03-06T05:00:39.436Z,102261.47
2024-03-06T05:59:34.570Z,102336.38
2024-03-06T06:02:01.858Z,102331.63
2024-03-06T06:04:29.109Z,102340.72
2024-03-06T06:06:56.183Z,102346.28
2024-03-06T06:09:23.318Z,102350.09
2024-03-06T06:11:51.968Z,102323.91
2024-03-06T06:14:19.169Z,102348.91
2024-03-06T06:16:46.282Z,102349.66
2024-03-06T06:19:13.404Z,102357.22
2024-03-06T06:21:40.490Z,102352.53
2024-03-06T06:24:08.351Z,102365.31
2024-03-06T06:26:35.456Z,102374.53
2024-03-06T06:29:02.703Z,102365.31
2024-03-06T06:31:30.014Z,102376.38
2024-03-06T06:33:57.166Z,102378.97
2024-03-06T06:36:24.414Z,102385.00
2024-03-06T06:38:51.589Z,102392.09
2024-03-06T06:41:19.104Z,102391.00
2024-03-06T06:43:46.661Z,102383.97
2024-03-06T06:46:13.972Z,102395.72
2024-03-06T06:48:41.148Z,102399.19
2024-03-06T06:51:08.688Z,102397.22
2024-03-06T06:53:35.958Z,102405.78
2024-03-06T06:56:03.373Z,102405.78
2024-03-06T06:58:30.557Z,102410.69
2024-03-06T07:00:57.718Z,102407.47
2024-03-06T07:03:30.809Z,102415.06
2024-03-06T07:05:58.759Z,102418.91
2024-03-06T07:08:25.938Z,102427.25
2024-03-06T07:10:56.319Z,102421.06
2024-03-06T07:13:23.597Z,102418.84
2024-03-06T07:15:50.694Z,102431.41
2024-03-06T07:18:17.895Z,102428.72
2024-03-06T07:20:45.177Z,102428.03
2024-03-06T07:23:12.605Z,102438.72
2024-03-06T07:25:39.693Z,102435.75
2024-03-06T07:28:06.977Z,102439.75
2024-03-06T07:30:34.092Z,102443.94
2024-03-06T07:33:02.049Z,102443.72
2024-03-06T07:35:29.260Z,102447.22
2024-03-06T07:37:56.431Z,102450.47
2024-03-06T07:40:23.907Z,102449.44
2024-03-06T07:42:51.022Z,102464.41
2024-03-06T07:45:18.113Z,102464.13
2024-03-06T07:47:46.559Z,102456.38
2024-03-06T07:50:14.030Z,102457.94
2024-03-06T07:52:41.169Z,102473.06
2024-03-06T07:55:08.589Z,102480.06
2024-03-06T07:57:35.628Z,102483.31
2024-03-06T08:00:09.699Z,102484.94
2024-03-06T08:02:36.719Z,102488.38
2024-03-06T08:05:04.112Z,102486.59
2024-03-06T08:07:31.592Z,102477.47
2024-03-06T08:09:58.577Z,102489.16
2024-03-06T08:12:25.666Z,102500.53
2024-03-06T08:14:53.012Z,102489.56
2024-03-06T08:17:20.215Z,102502.38
2024-03-06T08:19:47.483Z,102505.78
2024-03-06T08:22:15.217Z,102508.09
2024-03-06T08:24:42.368Z,102505.91
2024-03-06T08:27:09.482Z,102509.03
2024-03-06T08:29:36.580Z,102520.34
2024-03-06T08:32:05.160Z,102509.19
2024-03-06T08:34:33.232Z,102520.28
2024-03-06T08:37:00.274Z,102530.69
2024-03-06T08:39:27.297Z,102532.75
2024-03-06T08:41:54.375Z,102534.69
2024-03-06T08:44:21.721Z,102542.06
2024-03-06T08:46:48.727Z,102540.19
2024-03-06T08:49:15.827Z,102540.28
2024-03-06T08:51:42.845Z,102539.50
2024-03-06T08:54:14.631Z,102544.13
2024-03-06T08:56:45.146Z,102544.16
2024-03-06T08:59:12.574Z,102541.16
2024-03-06T09:01:39.692Z,102540.19
2024-03-06T09:04:08.631Z,102543.41
2024-03-06T09:06:35.653Z,102542.84
2024-03-06T09:09:03.556Z,102543.66
2024-03-06T09:11:30.671Z,102548.44
2024-03-06T09:13:57.770Z,102548.88
2024-03-06T09:16:25.671Z,102558.22
2024-03-06T09:18:53.778Z,102555.06
2024-03-06T09:21:22.396Z,102562.75
2024-03-06T09:23:52.702Z,102550.69
2024-03-06T09:26:19.871Z,102559.75
2024-03-06T09:28:47.029Z,102557.81
2024-03-06T09:31:14.808Z,102557.88
2024-03-06T09:33:42.051Z,102557.78
2024-03-06T09:36:14.473Z,102566.63
2024-03-06T09:38:41.857Z,102565.13
2024-03-06T09:41:09.942Z,102559.00
2024-03-06T09:43:37.331Z,102551.94
2024-03-06T09:46:05.367Z,102562.25
2024-03-06T09:48:33.227Z,102560.00
2024-03-06T09:51:05.680Z,102568.97
2024-03-06T09:53:32.788Z,102569.09
2024-03-06T09:56:01.601Z,102563.91
2024-03-06T09:58:28.950Z,102562.56
2024-03-06T10:00:57.774Z,102563.66
2024-03-06T10:03:24.874Z,102564.16
2024-03-06T10:05:52.044Z,102569.53
2024-03-06T10:08:21.296Z,102569.28
2024-03-06T10:10:51.825Z,102559.66
2024-03-06T10:13:18.837Z,102566.28
2024-03-06T10:16:10.110Z,102577.56
2024-03-06T10:18:40.077Z,102574.28
2024-03-06T10:21:07.284Z,102579.47
2024-03-06T10:23:36.101Z,102575.16
2024-03-06T10:26:03.324Z,102578.13
2024-03-06T10:28:30.408Z,102579.03
2024-03-06T10:31:07.176Z,102559.59
2024-03-06T10:33:35.462Z,102582.03
2024-03-06T10:36:05.237Z,102575.84
2024-03-06T10:38:37.192Z,102583.72
2024-03-06T10:41:07.828Z,102587.06
2024-03-06T10:43:36.472Z,102585.19
2024-03-06T10:46:07.820Z,102577.81
2024-03-06T10:48:36.256Z,102585.44
2024-03-06T10:51:04.961Z,102592.50
2024-03-06T10:53:34.254Z,102588.94
2024-03-06T10:56:03.252Z,102585.72
2024-03-06T10:58:31.036Z,102587.81
2024-03-06T11:00:59.485Z,102581.06
2024-03-06T11:03:27.500Z,102594.53
2024-03-06T11:05:54.626Z,102592.59
2024-03-06T11:08:22.900Z,102595.94
2024-03-06T11:10:50.338Z,102589.84
2024-03-06T11:13:28.266Z,102597.09
2024-03-06T11:15:58.856Z,102594.25
2024-03-06T11:18:32.544Z,102601.06
2024-03-06T11:21:02.846Z,102598.03
2024-03-06T11:23:33.677Z,102601.53
2024-03-06T11:26:08.066Z,102587.38
2024-03-06T11:28:41.500Z,102595.44
2024-03-06T11:31:20.197Z,102609.41
2024-03-06T11:36:31.714Z,102598.19
2024-03-06T11:39:01.554Z,102609.50
2024-03-06T11:41:33.541Z,102604.31
2024-03-06T11:44:02.101Z,102602.34
2024-03-06T11:47:10.553Z,102608.06
2024-03-06T11:49:39.480Z,102602.56
2024-03-06T11:52:11.858Z,102596.44
2024-03-06T11:54:40.081Z,102607.47
2024-03-06T11:57:08.097Z,102610.09
2024-03-06T11:59:41.195Z,102602.91
2024-03-06T12:02:08.759Z,102608.66
2024-03-06T12:04:40.058Z,102606.13
2024-03-06T12:07:08.362Z,102610.41
2024-03-06T12:09:41.106Z,102610.25
2024-03-06T12:12:11.302Z,102601.56
2024-03-06T12:14:41.302Z,102617.56
2024-03-06T12:17:14.838Z,102615.53
2024-03-06T12:19:43.927Z,102614.53
2024-03-06T12:22:12.091Z,102616.94
2024-03-06T12:24:39.188Z,102610.84
2024-03-06T12:27:08.555Z,102608.91
2024-03-06T12:29:39.378Z,102615.59
2024-03-06T12:32:19.085Z,102613.13
2024-03-06T12:34:57.371Z,102614.78
2024-03-06T12:37:36.139Z,102618.97
2024-03-06T12:40:06.104Z,102613.28
2024-03-06T12:42:34.057Z,102614.81
2024-03-06T12:45:01.347Z,102599.16
2024-03-06T12:47:28.676Z,102612.38
2024-03-06T12:49:55.858Z,102617.69
2024-03-06T12:52:22.952Z,102601.06
2024-03-06T12:54:50.915Z,102606.50
2024-03-06T12:57:19.169Z,102602.97
2024-03-06T12:59:46.488Z,102607.13
2024-03-06T13:02:13.788Z,102604.38
2024-03-06T13:04:40.851Z,102606.94
2024-03-06T13:07:07.965Z,102601.53
2024-03-06T13:09:35.174Z,102605.72
2024-03-06T13:12:02.704Z,102609.69
2024-03-06T13:14:29.817Z,102606.44
2024-03-06T13:16:57.378Z,102601.03
2024-03-06T13:19:24.528Z,102601.97
2024-03-06T13:21:51.936Z,102601.97
2024-03-06T13:24:19.062Z,102604.47
2024-03-06T13:26:47.168Z,102608.16
2024-03-06T13:29:15.016Z,102619.19
2024-03-06T13:31:42.086Z,102613.81
2024-03-06T13:34:09.221Z,102620.69
2024-03-06T13:36:36.532Z,102600.78
2024-03-06T13:39:03.652Z,102618.56
2024-03-06T13:41:31.218Z,102618.56
2024-03-06T13:43:58.493Z,102612.75
2024-03-06T13:46:25.572Z,102621.72
2024-03-06T13:48:52.718Z,102630.97
2024-03-06T13:51:19.745Z,102615.41
2024-03-06T13:53:47.372Z,102621.50
2024-03-06T13:56:14.511Z,102618.38
2024-03-06T13:58:42.302Z,102616.69
2024-03-06T14:01:09.360Z,102618.28
2024-03-06T14:03:38.931Z,102623.00
2024-03-06T14:06:08.497Z,102622.06
2024-03-06T14:08:35.624Z,102614.22
2024-03-06T14:11:05.356Z,102618.63
2024-03-06T14:13:32.492Z,102619.47
2024-03-06T14:16:01.713Z,102626.28
2024-03-06T14:18:30.059Z,102629.50
2024-03-06T14:20:57.351Z,102624.66
2024-03-06T14:23:24.572Z,102619.44
2024-03-06T14:25:52.012Z,102622.81
2024-03-06T14:28:19.065Z,102627.25
2024-03-06T14:30:46.613Z,102623.13
2024-03-06T14:33:13.863Z,102619.72
2024-03-06T14:35:40.978Z,102622.38
2024-03-06T14:38:08.095Z,102620.59
2024-03-06T14:40:35.414Z,102628.31
2024-03-06T14:43:03.328Z,102619.56
2024-03-06T14:45:30.468Z,102631.75
2024-03-06T14:47:57.639Z,102626.66
2024-03-06T14:50:24.815Z,102623.44
2024-03-06T14:52:51.943Z,102620.97
2024-03-06T14:55:19.070Z,102625.38
2024-03-06T14:57:46.173Z,102627.09
2024-03-06T15:00:13.919Z,102621.69
2024-03-06T15:02:41.485Z,102629.31
2024-03-06T15:05:08.848Z,102617.97
2024-03-06T15:07:35.955Z,102630.63
2024-03-06T15:10:03.083Z,102623.44
2024-03-06T15:12:30.164Z,102627.03
2024-03-06T15:14:59.443Z,102629.09
2024-03-06T15:17:29.568Z,102638.06
2024-03-06T15:19:58.250Z,102635.69
2024-03-06T15:22:25.876Z,102633.88
2024-03-06T15:24:52.932Z,102633.97
2024-03-06T15:27:20.005Z,102636.03
2024-03-06T15:29:47.209Z,102637.03
2024-03-06T15:32:14.453Z,102640.38
2024-03-06T15:34:41.630Z,102635.81
2024-03-06T15:37:08.657Z,102636.03
2024-03-06T15:39:35.984Z,102642.91
2024-03-06T15:42:03.145Z,102648.28
2024-03-06T15:44:30.274Z,102640.34
2024-03-06T15:47:06.603Z,102643.00
2024-03-06T15:49:37.725Z,102643.25
2024-03-06T15:52:05.200Z,102644.19
2024-03-06T15:54:32.558Z,102644.41
2024-03-06T15:56:59.760Z,102655.13
2024-03-06T15:59:27.011Z,102650.91
2024-03-06T16:01:54.247Z,102650.81
2024-03-06T16:04:21.402Z,102654.31
2024-03-06T16:06:48.772Z,102656.97
2024-03-06T16:09:16.360Z,102657.91
2024-03-06T16:11:43.912Z,102658.25
2024-03-06T16:14:12.186Z,102662.69
2024-03-06T16:16:43.379Z,102651.81
2024-03-06T16:19:10.766Z,102658.38
2024-03-06T16:21:41.187Z,102668.31
2024-03-06T16:24:11.063Z,102664.22
2024-03-06T16:26:38.777Z,102668.75
2024-03-06T16:29:06.070Z,102663.81
2024-03-06T16:31:33.304Z,102673.63
2024-03-06T16:34:00.564Z,102677.97
2024-03-06T16:36:27.722Z,102684.31
2024-03-06T16:38:54.926Z,102676.44
2024-03-06T16:41:22.158Z,102682.81
2024-03-06T16:43:49.290Z,102697.94
2024-03-06T16:46:18.480Z,102689.47
2024-03-06T16:48:45.643Z,102695.66
2024-03-06T16:51:19.334Z,102702.22
2024-03-06T16:53:46.645Z,102707.16
2024-03-06T16:56:14.148Z,102701.19
2024-03-06T16:58:41.718Z,102704.16
2024-03-06T17:01:08.832Z,102709.47
2024-03-06T17:03:35.943Z,102714.75
2024-03-06T17:06:03.114Z,102709.97
2024-03-06T17:08:30.188Z,102710.84
2024-03-06T17:10:57.287Z,102709.25
2024-03-06T17:13:24.421Z,102721.97
2024-03-06T17:15:52.363Z,102714.34
2024-03-06T17:18:22.448Z,102719.94
2024-03-06T17:20:49.732Z,102724.72
2024-03-06T17:23:16.867Z,102718.59
2024-03-06T17:25:45.268Z,102723.44
2024-03-06T17:28:12.367Z,102712.06
2024-03-06T17:30:39.429Z,102715.63
2024-03-06T17:33:06.697Z,102740.13
2024-03-06T17:35:33.942Z,102731.53
2024-03-06T17:38:04.270Z,102737.84
2024-03-06T17:40:31.744Z,102743.31
2024-03-06T17:42:59.025Z,102740.25
2024-03-06T17:45:26.285Z,102737.50
2024-03-06T17:47:53.813Z,102747.31
2024-03-06T17:50:21.568Z,102749.25
2024-03-06T17:52:48.793Z,102751.09
2024-03-06T17:55:18.279Z,102750.75
2024-03-06T17:57:48.117Z,102766.09
2024-03-06T18:00:18.199Z,102773.94
2024-03-06T18:02:45.862Z,102767.13
2024-03-06T18:05:14.366Z,102763.59
2024-03-06T18:07:45.864Z,102767.88
2024-03-06T18:10:14.354Z,102768.25
2024-03-06T18:12:41.513Z,102769.16
2024-03-06T18:15:09.246Z,102779.72
2024-03-06T18:17:38.660Z,102775.44
2024-03-06T18:20:09.322Z,102780.22
2024-03-06T18:22:38.681Z,102774.97
2024-03-06T18:25:09.527Z,102781.09
2024-03-06T18:27:37.007Z,102781.41
2024-03-06T18:30:05.365Z,102782.31
2024-03-06T18:32:33.027Z,102787.72
2024-03-06T18:35:00.325Z,102796.47
2024-03-06T18:37:27.602Z,102780.22
2024-03-06T18:39:54.755Z,102791.75
2024-03-06T18:42:22.583Z,102791.81
2024-03-06T18:44:50.602Z,102800.97
2024-03-06T18:47:21.054Z,102798.41
2024-03-06T18:49:48.276Z,102798.41
2024-03-06T18:52:15.557Z,102806.22
2024-03-06T18:54:43.028Z,102803.91
2024-03-06T18:57:10.243Z,102803.13
2024-03-06T18:59:39.081Z,102815.50
2024-03-06T19:02:09.238Z,102813.59
2024-03-06T19:04:38.304Z,102806.69
2024-03-06T19:07:06.052Z,102810.34
2024-03-06T19:09:33.152Z,102815.69
2024-03-06T19:12:00.888Z,102833.63
2024-03-06T19:14:28.722Z,102824.06
2024-03-06T19:16:55.837Z,102823.22
2024-03-06T19:19:23.773Z,102827.03
2024-03-06T19:21:53.225Z,102832.31
2024-03-06T19:24:21.746Z,102831.72
2024-03-06T19:26:51.399Z,102843.13
2024-03-06T19:29:19.696Z,102837.03
2024-03-06T19:31:47.579Z,102838.78
2024-03-06T19:34:17.637Z,102851.06
2024-03-06T19:36:45.162Z,102843.09
2024-03-06T19:39:12.249Z,102851.69
2024-03-06T19:41:40.740Z,102851.19
2024-03-06T19:44:07.960Z,102848.09
2024-03-06T19:46:35.325Z,102862.00
2024-03-06T19:49:02.445Z,102851.59
2024-03-06T19:51:32.250Z,102863.19
2024-03-06T19:53:59.517Z,102861.59
2024-03-06T19:56:26.714Z,102860.38
2024-03-06T19:58:54.216Z,102866.69
2024-03-06T20:01:21.953Z,102872.03
2024-03-06T20:03:49.113Z,102874.47
2024-03-06T20:06:16.844Z,102875.75
2024-03-06T20:08:44.046Z,102876.75
2024-03-06T20:11:11.761Z,102880.16
2024-03-06T20:13:39.083Z,102884.53
2024-03-06T20:16:07.712Z,102876.63
2024-03-06T20:18:36.484Z,102874.91
2024-03-06T20:21:04.133Z,102880.06
2024-03-06T20:23:31.181Z,102886.50
2024-03-06T20:25:58.661Z,102890.84
2024-03-06T20:28:26.194Z,102884.00
2024-03-06T20:30:53.864Z,102884.16
2024-03-06T20:33:21.317Z,102878.22
2024-03-06T20:35:51.420Z,102888.00
2024-03-06T20:38:19.988Z,102889.22
2024-03-06T20:40:50.201Z,102893.00
2024-03-06T20:43:17.394Z,102892.66
2024-03-06T20:45:45.304Z,102895.59
2024-03-06T20:48:13.500Z,102897.63
2024-03-06T20:50:41.764Z,102903.97
2024-03-06T20:53:09.059Z,102902.09
2024-03-06T20:55:36.397Z,102897.06
2024-03-06T20:58:03.578Z,102893.22
2024-03-06T21:00:33.540Z,102908.69
2024-03-06T21:03:01.183Z,102909.50
2024-03-06T21:05:28.364Z,102906.06
2024-03-06T21:07:55.588Z,102913.09
2024-03-06T21:10:23.201Z,102898.59
2024-03-06T21:12:51.621Z,102911.13
2024-03-06T21:15:19.187Z,102912.19
2024-03-06T21:17:46.517Z,102905.19
2024-03-06T21:20:14.190Z,102912.25
2024-03-06T21:22:42.910Z,102918.22
2024-03-06T21:25:13.064Z,102907.47
2024-03-06T21:27:41.028Z,102915.25
2024-03-06T21:30:09.594Z,102921.00
2024-03-06T21:32:37.855Z,102914.72
2024-03-06T21:35:05.671Z,102914.06
2024-03-06T21:37:33.929Z,102916.53
2024-03-06T21:40:04.085Z,102927.06
2024-03-06T21:42:32.230Z,102914.88
2024-03-06T21:44:59.469Z,102909.88
2024-03-06T21:47:26.657Z,102924.53
2024-03-06T21:49:53.893Z,102935.91
2024-03-06T21:52:20.979Z,102924.88
2024-03-06T21:54:48.098Z,102931.91
2024-03-06T21:57:16.878Z,102933.69
2024-03-06T21:59:44.281Z,102940.69
2024-03-06T22:02:14.215Z,102937.06
2024-03-06T22:04:41.507Z,102941.72
2024-03-06T22:07:08.672Z,102939.38
2024-03-06T22:09:38.557Z,102934.84
2024-03-06T22:12:09.437Z,102948.19
2024-03-06T22:14:36.714Z,102947.41
2024-03-06T22:17:03.891Z,102945.50
2024-03-06T22:19:31.452Z,102935.34
2024-03-06T22:21:58.831Z,102949.13
2024-03-06T22:24:26.355Z,102939.50
2024-03-06T22:26:54.624Z,102944.63
2024-03-06T22:29:21.839Z,102947.31
2024-03-06T22:31:51.847Z,102945.50
2024-03-06T22:34:19.032Z,102952.59
2024-03-06T22:36:46.117Z,102941.44
2024-03-06T22:39:13.337Z,102946.63
2024-03-06T22:41:40.761Z,102952.00
2024-03-06T22:44:08.001Z,102946.69
2024-03-06T22:46:47.332Z,102950.25
2024-03-06T22:49:18.796Z,102944.13
2024-03-06T22:51:46.349Z,102933.13
2024-03-06T22:54:13.631Z,102935.69
2024-03-06T22:56:41.155Z,102937.56
2024-03-06T22:59:11.104Z,102942.78
2024-03-06T23:01:41.399Z,102945.56
2024-03-06T23:04:08.847Z,102934.03
2024-03-06T23:06:36.671Z,102947.25
2024-03-06T23:09:04.967Z,102941.44
2024-03-06T23:11:33.058Z,102937.91
2024-03-06T23:14:00.374Z,102933.41
2024-03-06T23:16:29.152Z,102938.09
2024-03-06T23:18:59.074Z,102930.28
2024-03-06T23:21:27.858Z,102939.03
2024-03-06T23:23:55.123Z,102938.84
2024-03-06T23:26:22.557Z,102931.63
2024-03-06T23:28:49.978Z,102930.97
2024-03-06T23:31:17.556Z,102931.81
2024-03-06T23:33:45.371Z,102935.25
2024-03-06T23:36:15.304Z,102932.50
2024-03-06T23:38:42.610Z,102937.06
2024-03-06T23:41:10.993Z,102942.25
2024-03-06T23:43:38.196Z,102927.28
2024-03-06T23:46:08.564Z,102932.75
2024-03-06T23:48:37.734Z,102930.28
2024-03-06T23:51:05.430Z,102931.09
2024-03-06T23:53:33.293Z,102927.59
2024-03-06T23:56:00.408Z,102930.03
2024-03-06T23:58:27.801Z,102928.47
